Soldotna, AK

5:57 AM AKDT on March 27, 2015 (GMT -0800)
Anchorage | | Change Station
CLOSE
Current Station
Airport
Location: Anchorage,
Elevation: 144 ft
Nearby Weather Stations

Elev 144 ft 61.17 °N, 150.03 °W | Updated 4 minutes ago

Mostly Cloudy
Mostly Cloudy
40 °F
Feels Like 31 °F
N
16
Wind Variable Wind from SSE
Gusts 24 mph

Today
High -- | Low -- °F
--% Chance of Precip.
Yesterday
High -- | Low -- °F
Precip. -- in
7:44 AM 8:36 PM
First Quarter, 53% visible
Pressure 29.57 in
Visibility 10.0 miles
Clouds Few 8500 ft
Mostly Cloudy 15000 ft
Windchill 31 °F
Dew Point 28 °F
Humidity 63%
Rainfall 0.00 in
Snow Depth Not available.
UV 0 out of 12
Pollen Not available.
Air Quality Not available.
Flu Activity Not available.
METAR PANC 271353Z 16014G21KT 10SM FEW085 BKN150 04/M02 A2957 RMK AO2 SLP014 T00441022

More Conditions Fewer Conditions

Pressure 29.57 in
Visibility 10.0 miles
Clouds Few 8500 ft
Mostly Cloudy 15000 ft
Windchill 31 °F
Dew Point 28 °F
Humidity 63%
Rainfall 0.00 in
Snow Depth Not available.
UV 0 out of 12
Pollen Not available.
Air Quality Not available.
Flu Activity Not available.
METAR PANC 271353Z 16014G21KT 10SM FEW085 BKN150 04/M02 A2957 RMK AO2 SLP014 T00441022

More Conditions Fewer Conditions

10-Day Weather Forecast

Almanac

Astronomy

Mar. 27, 2015 Rise Set
Actual Time
Civil Twilight
Nautical Twilight
Astronomical Twilight
Moon
Length of Visible Light
Length of Day
Tomorrow will be .
, % of the Moon is Illuminated

Today's Extremes

State Highs State Lows

Community

WunderPhotos

Upload Photos

1,808,735 photos uploaded!

WunderBlogs® & News

Nearby

Air Quality

  Air Quality AQ Index Pollutant
Not available.

Snow Depth

Station Depth Elevation

Earthquake Activity

City Distance Mag. Time & Date
Minimum magnitude displayed is 2.5.

Coastal Water Temperatures

Place Temperature

Stations

Nearby Weather Stations

Station Location Temp. Windchill Dew Point Humidity Wind Precip. Elev Updated Type